Valley Bend, West Virginia
Current Conditions -  °F | °C
As of 2:51 PM on Sunday 25 Jan 2015 (Local Time) from KEKN Reporting Station
Clear Clear  
Wind Chill: 42°   Ceiling: Unl
Heat Index: 42°   Visibility: 10mi
Dew Point: 34°   Wind: 0mph
Humidity: 73%   Direction: NA
Pressure: 29.73"   Gusts: NA
Location:  39.06°N, 79.97°W
Report Text: KEKN 251951Z AUTO 00000KT 10SM CLR 06/01 A2973 RMK AO2 SLP085 T00560011 TSNO
Loading
Personal Weather Stations






























Interactive Weather Map New forecast layout! Learn more

10-Day Weather Forecast

Advertisements
Track Severe Weather on mobile